sensor_id;sensor_type;location;lat;lon;timestamp;P1;durP1;ratioP1;P2;durP2;ratioP2
11034;SDS011;5571;48.110;-1.706;2023-09-19T00:00:43;4.30;;;1.87;;
11034;SDS011;5571;48.110;-1.706;2023-09-19T00:03:11;5.50;;;1.83;;
11034;SDS011;5571;48.110;-1.706;2023-09-19T00:05:37;4.67;;;1.80;;
11034;SDS011;5571;48.110;-1.706;2023-09-19T00:08:04;6.47;;;2.10;;
11034;SDS011;5571;48.110;-1.706;2023-09-19T00:10:31;11.13;;;2.40;;
11034;SDS011;5571;48.110;-1.706;2023-09-19T00:12:59;5.93;;;2.00;;
11034;SDS011;5571;48.110;-1.706;2023-09-19T00:15:30;5.30;;;1.83;;
11034;SDS011;5571;48.110;-1.706;2023-09-19T00:18:00;6.63;;;2.07;;
11034;SDS011;5571;48.110;-1.706;2023-09-19T00:20:26;5.03;;;2.00;;
11034;SDS011;5571;48.110;-1.706;2023-09-19T00:22:54;5.13;;;2.23;;
11034;SDS011;5571;48.110;-1.706;2023-09-19T00:25:20;5.57;;;1.93;;
11034;SDS011;5571;48.110;-1.706;2023-09-19T00:27:46;9.73;;;2.20;;
11034;SDS011;5571;48.110;-1.706;2023-09-19T00:30:16;7.00;;;1.93;;
11034;SDS011;5571;48.110;-1.706;2023-09-19T00:32:46;6.27;;;1.83;;
11034;SDS011;5571;48.110;-1.706;2023-09-19T00:35:13;7.37;;;2.40;;
11034;SDS011;5571;48.110;-1.706;2023-09-19T00:37:40;8.37;;;2.40;;
11034;SDS011;5571;48.110;-1.706;2023-09-19T00:40:07;6.43;;;2.27;;
11034;SDS011;5571;48.110;-1.706;2023-09-19T00:42:37;6.03;;;2.37;;
11034;SDS011;5571;48.110;-1.706;2023-09-19T00:45:07;5.60;;;2.07;;
11034;SDS011;5571;48.110;-1.706;2023-09-19T00:47:35;9.03;;;3.37;;
11034;SDS011;5571;48.110;-1.706;2023-09-19T00:50:03;9.03;;;2.50;;
11034;SDS011;5571;48.110;-1.706;2023-09-19T00:52:32;9.23;;;2.33;;
11034;SDS011;5571;48.110;-1.706;2023-09-19T00:55:01;5.77;;;2.00;;
11034;SDS011;5571;48.110;-1.706;2023-09-19T00:57:28;8.93;;;2.27;;
11034;SDS011;5571;48.110;-1.706;2023-09-19T00:59:54;9.93;;;2.43;;
11034;SDS011;5571;48.110;-1.706;2023-09-19T01:02:21;5.90;;;2.20;;
11034;SDS011;5571;48.110;-1.706;2023-09-19T01:04:47;7.67;;;2.10;;
11034;SDS011;5571;48.110;-1.706;2023-09-19T01:07:13;7.40;;;2.20;;
11034;SDS011;5571;48.110;-1.706;2023-09-19T01:09:40;8.57;;;2.13;;
11034;SDS011;5571;48.110;-1.706;2023-09-19T01:12:07;10.23;;;2.43;;
11034;SDS011;5571;48.110;-1.706;2023-09-19T01:20:33;12.33;;;2.93;;
11034;SDS011;5571;48.110;-1.706;2023-09-19T01:29:12;7.37;;;2.20;;
11034;SDS011;5571;48.110;-1.706;2023-09-19T01:31:56;12.60;;;2.20;;
11034;SDS011;5571;48.110;-1.706;2023-09-19T01:34:26;12.33;;;2.47;;
11034;SDS011;5571;48.110;-1.706;2023-09-19T01:36:52;7.00;;;2.50;;
11034;SDS011;5571;48.110;-1.706;2023-09-19T01:39:17;6.63;;;2.63;;
11034;SDS011;5571;48.110;-1.706;2023-09-19T01:44:48;10.13;;;2.23;;
11034;SDS011;5571;48.110;-1.706;2023-09-19T01:50:19;10.67;;;2.40;;
11034;SDS011;5571;48.110;-1.706;2023-09-19T01:53:26;5.57;;;2.47;;
11034;SDS011;5571;48.110;-1.706;2023-09-19T01:55:58;13.03;;;2.90;;
11034;SDS011;5571;48.110;-1.706;2023-09-19T02:01:11;13.30;;;3.17;;
11034;SDS011;5571;48.110;-1.706;2023-09-19T02:03:39;12.10;;;2.70;;
11034;SDS011;5571;48.110;-1.706;2023-09-19T02:06:06;7.30;;;2.63;;
11034;SDS011;5571;48.110;-1.706;2023-09-19T02:08:36;8.90;;;2.33;;
11034;SDS011;5571;48.110;-1.706;2023-09-19T02:11:02;9.17;;;2.60;;
11034;SDS011;5571;48.110;-1.706;2023-09-19T02:13:28;9.93;;;2.50;;
11034;SDS011;5571;48.110;-1.706;2023-09-19T02:15:55;9.63;;;2.77;;
11034;SDS011;5571;48.110;-1.706;2023-09-19T02:18:20;16.20;;;2.83;;
11034;SDS011;5571;48.110;-1.706;2023-09-19T02:20:46;11.40;;;2.97;;
11034;SDS011;5571;48.110;-1.706;2023-09-19T02:23:12;8.43;;;2.30;;
11034;SDS011;5571;48.110;-1.706;2023-09-19T02:25:38;11.37;;;2.80;;
11034;SDS011;5571;48.110;-1.706;2023-09-19T02:28:05;19.60;;;2.70;;
11034;SDS011;5571;48.110;-1.706;2023-09-19T02:30:31;13.43;;;2.80;;
11034;SDS011;5571;48.110;-1.706;2023-09-19T02:32:58;8.00;;;2.50;;
11034;SDS011;5571;48.110;-1.706;2023-09-19T02:35:26;14.47;;;2.63;;
11034;SDS011;5571;48.110;-1.706;2023-09-19T02:37:53;11.10;;;2.63;;
11034;SDS011;5571;48.110;-1.706;2023-09-19T02:40:18;16.97;;;3.17;;
11034;SDS011;5571;48.110;-1.706;2023-09-19T02:42:47;13.90;;;3.00;;
11034;SDS011;5571;48.110;-1.706;2023-09-19T02:45:17;7.30;;;2.33;;
11034;SDS011;5571;48.110;-1.706;2023-09-19T02:47:43;8.13;;;2.33;;
11034;SDS011;5571;48.110;-1.706;2023-09-19T02:50:09;7.13;;;2.70;;
11034;SDS011;5571;48.110;-1.706;2023-09-19T02:52:38;11.20;;;2.40;;
11034;SDS011;5571;48.110;-1.706;2023-09-19T02:55:12;13.97;;;3.07;;
11034;SDS011;5571;48.110;-1.706;2023-09-19T02:57:52;13.47;;;2.90;;
11034;SDS011;5571;48.110;-1.706;2023-09-19T03:00:21;9.43;;;2.53;;
11034;SDS011;5571;48.110;-1.706;2023-09-19T03:02:53;14.23;;;3.17;;
11034;SDS011;5571;48.110;-1.706;2023-09-19T03:05:20;12.27;;;2.93;;
11034;SDS011;5571;48.110;-1.706;2023-09-19T03:07:46;10.33;;;2.60;;
11034;SDS011;5571;48.110;-1.706;2023-09-19T03:10:16;11.60;;;2.50;;
11034;SDS011;5571;48.110;-1.706;2023-09-19T03:12:42;12.23;;;2.80;;
11034;SDS011;5571;48.110;-1.706;2023-09-19T03:15:08;10.80;;;2.57;;
11034;SDS011;5571;48.110;-1.706;2023-09-19T03:17:34;15.47;;;3.30;;
11034;SDS011;5571;48.110;-1.706;2023-09-19T03:20:01;12.93;;;3.13;;
11034;SDS011;5571;48.110;-1.706;2023-09-19T03:22:27;14.30;;;3.03;;
11034;SDS011;5571;48.110;-1.706;2023-09-19T03:24:53;8.10;;;2.70;;
11034;SDS011;5571;48.110;-1.706;2023-09-19T03:27:19;11.20;;;2.80;;
11034;SDS011;5571;48.110;-1.706;2023-09-19T03:29:45;15.73;;;2.67;;
11034;SDS011;5571;48.110;-1.706;2023-09-19T03:32:11;15.83;;;3.40;;
11034;SDS011;5571;48.110;-1.706;2023-09-19T03:34:37;13.97;;;2.90;;
11034;SDS011;5571;48.110;-1.706;2023-09-19T03:37:08;9.77;;;2.90;;
11034;SDS011;5571;48.110;-1.706;2023-09-19T03:39:34;13.40;;;3.03;;
11034;SDS011;5571;48.110;-1.706;2023-09-19T03:42:00;16.37;;;3.40;;
11034;SDS011;5571;48.110;-1.706;2023-09-19T03:44:26;10.73;;;2.70;;
11034;SDS011;5571;48.110;-1.706;2023-09-19T03:46:51;11.80;;;2.63;;
11034;SDS011;5571;48.110;-1.706;2023-09-19T03:49:17;13.80;;;2.90;;
11034;SDS011;5571;48.110;-1.706;2023-09-19T03:51:44;13.00;;;2.73;;
11034;SDS011;5571;48.110;-1.706;2023-09-19T03:54:09;9.50;;;2.70;;
11034;SDS011;5571;48.110;-1.706;2023-09-19T03:56:35;13.63;;;3.40;;
11034;SDS011;5571;48.110;-1.706;2023-09-19T03:59:00;11.97;;;2.87;;
11034;SDS011;5571;48.110;-1.706;2023-09-19T04:01:26;12.73;;;2.60;;
11034;SDS011;5571;48.110;-1.706;2023-09-19T04:03:53;13.47;;;2.80;;
11034;SDS011;5571;48.110;-1.706;2023-09-19T04:06:18;9.83;;;2.67;;
11034;SDS011;5571;48.110;-1.706;2023-09-19T04:08:44;16.17;;;3.10;;
11034;SDS011;5571;48.110;-1.706;2023-09-19T04:11:11;8.73;;;2.63;;
11034;SDS011;5571;48.110;-1.706;2023-09-19T04:13:36;9.80;;;2.97;;
11034;SDS011;5571;48.110;-1.706;2023-09-19T04:16:02;10.17;;;3.10;;
11034;SDS011;5571;48.110;-1.706;2023-09-19T04:18:35;15.93;;;3.20;;
11034;SDS011;5571;48.110;-1.706;2023-09-19T04:21:03;11.13;;;2.93;;
11034;SDS011;5571;48.110;-1.706;2023-09-19T04:23:30;10.50;;;3.17;;
11034;SDS011;5571;48.110;-1.706;2023-09-19T04:25:57;10.57;;;3.50;;
11034;SDS011;5571;48.110;-1.706;2023-09-19T04:28:23;10.93;;;2.50;;
11034;SDS011;5571;48.110;-1.706;2023-09-19T04:30:49;16.73;;;3.00;;
11034;SDS011;5571;48.110;-1.706;2023-09-19T04:33:15;14.10;;;2.47;;
11034;SDS011;5571;48.110;-1.706;2023-09-19T04:35:40;16.77;;;2.53;;
11034;SDS011;5571;48.110;-1.706;2023-09-19T04:38:08;14.97;;;3.27;;
11034;SDS011;5571;48.110;-1.706;2023-09-19T04:40:34;10.90;;;3.10;;
11034;SDS011;5571;48.110;-1.706;2023-09-19T04:43:00;10.77;;;2.63;;
11034;SDS011;5571;48.110;-1.706;2023-09-19T04:45:26;8.57;;;2.87;;
11034;SDS011;5571;48.110;-1.706;2023-09-19T04:47:53;8.80;;;2.90;;
11034;SDS011;5571;48.110;-1.706;2023-09-19T04:50:19;13.00;;;2.50;;
11034;SDS011;5571;48.110;-1.706;2023-09-19T04:52:46;10.07;;;2.77;;
11034;SDS011;5571;48.110;-1.706;2023-09-19T04:55:16;14.40;;;3.20;;
11034;SDS011;5571;48.110;-1.706;2023-09-19T04:57:45;10.83;;;2.80;;
11034;SDS011;5571;48.110;-1.706;2023-09-19T05:00:15;9.70;;;2.73;;
11034;SDS011;5571;48.110;-1.706;2023-09-19T05:02:44;15.17;;;2.80;;
11034;SDS011;5571;48.110;-1.706;2023-09-19T05:05:10;9.30;;;2.80;;
11034;SDS011;5571;48.110;-1.706;2023-09-19T05:07:38;13.10;;;2.87;;
11034;SDS011;5571;48.110;-1.706;2023-09-19T05:10:04;12.53;;;3.40;;
11034;SDS011;5571;48.110;-1.706;2023-09-19T05:12:34;13.40;;;2.83;;
11034;SDS011;5571;48.110;-1.706;2023-09-19T05:15:04;13.60;;;2.87;;
11034;SDS011;5571;48.110;-1.706;2023-09-19T05:17:32;13.67;;;3.00;;
11034;SDS011;5571;48.110;-1.706;2023-09-19T05:20:01;8.23;;;2.53;;
11034;SDS011;5571;48.110;-1.706;2023-09-19T05:22:40;9.20;;;2.70;;
11034;SDS011;5571;48.110;-1.706;2023-09-19T05:25:11;9.27;;;3.00;;
11034;SDS011;5571;48.110;-1.706;2023-09-19T05:27:41;18.43;;;3.17;;
11034;SDS011;5571;48.110;-1.706;2023-09-19T05:30:08;14.53;;;3.53;;
11034;SDS011;5571;48.110;-1.706;2023-09-19T05:32:34;11.10;;;2.60;;
11034;SDS011;5571;48.110;-1.706;2023-09-19T05:34:59;15.27;;;3.23;;
11034;SDS011;5571;48.110;-1.706;2023-09-19T05:37:25;14.63;;;3.43;;
11034;SDS011;5571;48.110;-1.706;2023-09-19T05:39:51;11.17;;;2.93;;
11034;SDS011;5571;48.110;-1.706;2023-09-19T05:42:18;13.30;;;2.77;;
11034;SDS011;5571;48.110;-1.706;2023-09-19T05:44:44;10.77;;;2.80;;
11034;SDS011;5571;48.110;-1.706;2023-09-19T05:47:10;10.80;;;2.70;;
11034;SDS011;5571;48.110;-1.706;2023-09-19T05:49:35;15.30;;;3.47;;
11034;SDS011;5571;48.110;-1.706;2023-09-19T05:52:07;15.80;;;2.67;;
11034;SDS011;5571;48.110;-1.706;2023-09-19T05:54:33;9.03;;;2.90;;
11034;SDS011;5571;48.110;-1.706;2023-09-19T05:56:59;13.27;;;3.23;;
11034;SDS011;5571;48.110;-1.706;2023-09-19T05:59:26;12.90;;;3.00;;
11034;SDS011;5571;48.110;-1.706;2023-09-19T06:01:52;14.07;;;3.23;;
11034;SDS011;5571;48.110;-1.706;2023-09-19T06:04:18;14.20;;;3.40;;
11034;SDS011;5571;48.110;-1.706;2023-09-19T06:06:46;10.87;;;3.27;;
11034;SDS011;5571;48.110;-1.706;2023-09-19T06:09:13;13.87;;;3.10;;
11034;SDS011;5571;48.110;-1.706;2023-09-19T06:11:41;13.90;;;3.07;;
11034;SDS011;5571;48.110;-1.706;2023-09-19T06:14:07;11.43;;;3.20;;
11034;SDS011;5571;48.110;-1.706;2023-09-19T06:16:33;17.43;;;3.40;;
11034;SDS011;5571;48.110;-1.706;2023-09-19T06:18:58;9.57;;;2.90;;
11034;SDS011;5571;48.110;-1.706;2023-09-19T06:21:25;16.90;;;3.47;;
11034;SDS011;5571;48.110;-1.706;2023-09-19T06:23:52;12.60;;;3.00;;
11034;SDS011;5571;48.110;-1.706;2023-09-19T06:26:23;14.10;;;3.57;;
11034;SDS011;5571;48.110;-1.706;2023-09-19T06:28:48;11.77;;;3.20;;
11034;SDS011;5571;48.110;-1.706;2023-09-19T06:31:14;18.80;;;3.07;;
11034;SDS011;5571;48.110;-1.706;2023-09-19T06:33:40;12.67;;;3.17;;
11034;SDS011;5571;48.110;-1.706;2023-09-19T06:36:06;17.00;;;3.83;;
11034;SDS011;5571;48.110;-1.706;2023-09-19T06:38:32;15.67;;;3.83;;
11034;SDS011;5571;48.110;-1.706;2023-09-19T06:41:01;14.67;;;3.00;;
11034;SDS011;5571;48.110;-1.706;2023-09-19T06:43:30;11.77;;;3.07;;
11034;SDS011;5571;48.110;-1.706;2023-09-19T06:45:56;14.30;;;3.00;;
11034;SDS011;5571;48.110;-1.706;2023-09-19T06:48:22;18.47;;;3.10;;
11034;SDS011;5571;48.110;-1.706;2023-09-19T06:50:50;13.33;;;3.00;;
11034;SDS011;5571;48.110;-1.706;2023-09-19T06:53:16;12.47;;;3.30;;
11034;SDS011;5571;48.110;-1.706;2023-09-19T06:55:42;13.87;;;3.30;;
11034;SDS011;5571;48.110;-1.706;2023-09-19T06:58:09;9.27;;;3.00;;
11034;SDS011;5571;48.110;-1.706;2023-09-19T07:00:35;10.50;;;3.50;;
11034;SDS011;5571;48.110;-1.706;2023-09-19T07:03:03;16.43;;;3.27;;
11034;SDS011;5571;48.110;-1.706;2023-09-19T07:05:33;18.27;;;3.40;;
11034;SDS011;5571;48.110;-1.706;2023-09-19T07:08:02;15.53;;;3.80;;
11034;SDS011;5571;48.110;-1.706;2023-09-19T07:10:29;14.00;;;3.20;;
11034;SDS011;5571;48.110;-1.706;2023-09-19T07:13:02;12.60;;;3.30;;
11034;SDS011;5571;48.110;-1.706;2023-09-19T07:15:29;11.83;;;3.10;;
11034;SDS011;5571;48.110;-1.706;2023-09-19T07:17:58;14.20;;;3.27;;
11034;SDS011;5571;48.110;-1.706;2023-09-19T07:20:25;15.77;;;3.07;;
11034;SDS011;5571;48.110;-1.706;2023-09-19T07:22:52;14.70;;;3.13;;
11034;SDS011;5571;48.110;-1.706;2023-09-19T07:25:20;13.97;;;3.30;;
11034;SDS011;5571;48.110;-1.706;2023-09-19T07:27:46;15.07;;;3.37;;
11034;SDS011;5571;48.110;-1.706;2023-09-19T07:30:12;13.27;;;3.00;;
11034;SDS011;5571;48.110;-1.706;2023-09-19T07:32:39;9.70;;;3.10;;
11034;SDS011;5571;48.110;-1.706;2023-09-19T07:35:05;9.97;;;2.50;;
11034;SDS011;5571;48.110;-1.706;2023-09-19T07:37:31;10.90;;;3.10;;
11034;SDS011;5571;48.110;-1.706;2023-09-19T07:40:01;14.40;;;2.90;;
11034;SDS011;5571;48.110;-1.706;2023-09-19T07:42:32;9.63;;;2.63;;
11034;SDS011;5571;48.110;-1.706;2023-09-19T07:45:00;21.67;;;3.80;;
11034;SDS011;5571;48.110;-1.706;2023-09-19T07:47:26;8.63;;;3.00;;
11034;SDS011;5571;48.110;-1.706;2023-09-19T07:49:52;12.03;;;3.27;;
11034;SDS011;5571;48.110;-1.706;2023-09-19T07:52:18;11.43;;;3.00;;
11034;SDS011;5571;48.110;-1.706;2023-09-19T07:54:44;8.70;;;2.63;;
11034;SDS011;5571;48.110;-1.706;2023-09-19T07:57:10;20.53;;;3.20;;
11034;SDS011;5571;48.110;-1.706;2023-09-19T07:59:37;13.17;;;3.10;;
11034;SDS011;5571;48.110;-1.706;2023-09-19T08:02:04;9.87;;;2.83;;
11034;SDS011;5571;48.110;-1.706;2023-09-19T08:04:30;15.00;;;3.40;;
11034;SDS011;5571;48.110;-1.706;2023-09-19T08:06:58;11.38;;;3.10;;
11034;SDS011;5571;48.110;-1.706;2023-09-19T08:09:28;11.18;;;2.90;;
11034;SDS011;5571;48.110;-1.706;2023-09-19T08:11:58;11.02;;;2.95;;
11034;SDS011;5571;48.110;-1.706;2023-09-19T08:14:29;8.20;;;2.80;;
11034;SDS011;5571;48.110;-1.706;2023-09-19T08:16:57;7.88;;;2.63;;
11034;SDS011;5571;48.110;-1.706;2023-09-19T08:19:24;14.23;;;3.17;;
11034;SDS011;5571;48.110;-1.706;2023-09-19T08:21:54;15.27;;;3.03;;
11034;SDS011;5571;48.110;-1.706;2023-09-19T08:24:23;9.80;;;2.72;;
11034;SDS011;5571;48.110;-1.706;2023-09-19T08:26:50;11.43;;;2.92;;
11034;SDS011;5571;48.110;-1.706;2023-09-19T08:29:16;12.35;;;3.25;;
11034;SDS011;5571;48.110;-1.706;2023-09-19T08:31:42;10.23;;;2.85;;
11034;SDS011;5571;48.110;-1.706;2023-09-19T08:34:08;9.57;;;2.80;;
11034;SDS011;5571;48.110;-1.706;2023-09-19T08:36:34;13.70;;;3.03;;
11034;SDS011;5571;48.110;-1.706;2023-09-19T08:39:00;12.50;;;3.20;;
11034;SDS011;5571;48.110;-1.706;2023-09-19T08:41:25;9.25;;;2.80;;
11034;SDS011;5571;48.110;-1.706;2023-09-19T08:43:51;13.35;;;3.28;;
11034;SDS011;5571;48.110;-1.706;2023-09-19T08:46:18;15.15;;;3.50;;
11034;SDS011;5571;48.110;-1.706;2023-09-19T08:48:46;12.15;;;3.40;;
11034;SDS011;5571;48.110;-1.706;2023-09-19T08:51:26;11.85;;;3.50;;
11034;SDS011;5571;48.110;-1.706;2023-09-19T08:54:03;8.73;;;3.03;;
11034;SDS011;5571;48.110;-1.706;2023-09-19T08:56:32;17.65;;;3.33;;
11034;SDS011;5571;48.110;-1.706;2023-09-19T08:59:04;17.25;;;3.88;;
11034;SDS011;5571;48.110;-1.706;2023-09-19T09:01:32;18.02;;;3.53;;
11034;SDS011;5571;48.110;-1.706;2023-09-19T09:03:59;12.48;;;3.70;;
11034;SDS011;5571;48.110;-1.706;2023-09-19T09:06:26;14.55;;;3.47;;
11034;SDS011;5571;48.110;-1.706;2023-09-19T09:08:53;15.55;;;2.88;;
11034;SDS011;5571;48.110;-1.706;2023-09-19T09:11:19;17.15;;;3.05;;
11034;SDS011;5571;48.110;-1.706;2023-09-19T09:13:46;13.38;;;3.10;;
11034;SDS011;5571;48.110;-1.706;2023-09-19T09:16:13;15.60;;;3.13;;
11034;SDS011;5571;48.110;-1.706;2023-09-19T09:18:43;13.23;;;3.35;;
11034;SDS011;5571;48.110;-1.706;2023-09-19T09:21:10;15.95;;;3.60;;
11034;SDS011;5571;48.110;-1.706;2023-09-19T09:23:36;13.18;;;3.13;;
11034;SDS011;5571;48.110;-1.706;2023-09-19T09:26:02;15.57;;;3.40;;
11034;SDS011;5571;48.110;-1.706;2023-09-19T09:28:28;14.25;;;2.83;;
11034;SDS011;5571;48.110;-1.706;2023-09-19T09:30:55;11.95;;;2.97;;
11034;SDS011;5571;48.110;-1.706;2023-09-19T09:33:21;13.48;;;3.28;;
11034;SDS011;5571;48.110;-1.706;2023-09-19T09:35:48;13.43;;;3.60;;
11034;SDS011;5571;48.110;-1.706;2023-09-19T09:38:18;12.98;;;3.67;;
11034;SDS011;5571;48.110;-1.706;2023-09-19T09:40:49;14.73;;;3.40;;
11034;SDS011;5571;48.110;-1.706;2023-09-19T09:43:35;13.38;;;3.50;;
11034;SDS011;5571;48.110;-1.706;2023-09-19T09:49:04;13.35;;;3.38;;
11034;SDS011;5571;48.110;-1.706;2023-09-19T09:51:42;14.63;;;3.20;;
11034;SDS011;5571;48.110;-1.706;2023-09-19T09:54:28;10.75;;;3.15;;
11034;SDS011;5571;48.110;-1.706;2023-09-19T09:57:07;11.32;;;3.50;;
11034;SDS011;5571;48.110;-1.706;2023-09-19T09:59:49;14.65;;;3.47;;
11034;SDS011;5571;48.110;-1.706;2023-09-19T10:02:15;11.88;;;3.22;;
11034;SDS011;5571;48.110;-1.706;2023-09-19T10:04:49;10.15;;;3.30;;
11034;SDS011;5571;48.110;-1.706;2023-09-19T10:07:32;14.68;;;3.17;;
11034;SDS011;5571;48.110;-1.706;2023-09-19T10:10:01;16.60;;;3.42;;
11034;SDS011;5571;48.110;-1.706;2023-09-19T10:12:37;13.30;;;3.00;;
11034;SDS011;5571;48.110;-1.706;2023-09-19T10:15:07;11.40;;;3.25;;
11034;SDS011;5571;48.110;-1.706;2023-09-19T10:17:36;11.55;;;3.42;;
11034;SDS011;5571;48.110;-1.706;2023-09-19T10:20:03;10.90;;;2.88;;
11034;SDS011;5571;48.110;-1.706;2023-09-19T10:22:42;10.75;;;3.17;;
11034;SDS011;5571;48.110;-1.706;2023-09-19T10:25:17;11.90;;;3.15;;
11034;SDS011;5571;48.110;-1.706;2023-09-19T10:27:48;13.18;;;3.15;;
11034;SDS011;5571;48.110;-1.706;2023-09-19T10:30:15;10.63;;;3.17;;
11034;SDS011;5571;48.110;-1.706;2023-09-19T10:32:42;14.10;;;3.42;;
11034;SDS011;5571;48.110;-1.706;2023-09-19T10:35:08;12.63;;;2.90;;
11034;SDS011;5571;48.110;-1.706;2023-09-19T10:37:38;9.32;;;2.88;;
11034;SDS011;5571;48.110;-1.706;2023-09-19T10:40:05;9.15;;;3.03;;
11034;SDS011;5571;48.110;-1.706;2023-09-19T10:42:33;10.75;;;3.33;;
11034;SDS011;5571;48.110;-1.706;2023-09-19T10:45:05;12.50;;;3.30;;
11034;SDS011;5571;48.110;-1.706;2023-09-19T10:47:37;17.58;;;3.63;;
11034;SDS011;5571;48.110;-1.706;2023-09-19T10:50:03;13.18;;;3.45;;
11034;SDS011;5571;48.110;-1.706;2023-09-19T10:52:31;10.35;;;3.50;;
11034;SDS011;5571;48.110;-1.706;2023-09-19T10:54:59;16.02;;;3.80;;
11034;SDS011;5571;48.110;-1.706;2023-09-19T10:57:26;10.27;;;3.25;;
11034;SDS011;5571;48.110;-1.706;2023-09-19T11:05:36;14.50;;;3.40;;
11034;SDS011;5571;48.110;-1.706;2023-09-19T11:08:06;13.45;;;3.33;;
11034;SDS011;5571;48.110;-1.706;2023-09-19T11:10:48;15.50;;;3.35;;
11034;SDS011;5571;48.110;-1.706;2023-09-19T11:13:28;10.68;;;3.30;;
11034;SDS011;5571;48.110;-1.706;2023-09-19T11:26:47;11.93;;;3.40;;
11034;SDS011;5571;48.110;-1.706;2023-09-19T11:29:26;12.80;;;3.63;;
11034;SDS011;5571;48.110;-1.706;2023-09-19T11:31:54;12.10;;;3.15;;
11034;SDS011;5571;48.110;-1.706;2023-09-19T11:40:07;13.98;;;3.80;;
11034;SDS011;5571;48.110;-1.706;2023-09-19T11:42:47;12.18;;;3.47;;
11034;SDS011;5571;48.110;-1.706;2023-09-19T11:48:12;11.07;;;3.47;;
11034;SDS011;5571;48.110;-1.706;2023-09-19T11:50:41;13.15;;;3.13;;
11034;SDS011;5571;48.110;-1.706;2023-09-19T11:53:09;8.52;;;2.78;;
11034;SDS011;5571;48.110;-1.706;2023-09-19T11:55:37;9.45;;;3.22;;
11034;SDS011;5571;48.110;-1.706;2023-09-19T11:58:03;9.05;;;3.20;;
11034;SDS011;5571;48.110;-1.706;2023-09-19T12:00:32;12.48;;;3.28;;
11034;SDS011;5571;48.110;-1.706;2023-09-19T12:03:00;11.88;;;3.45;;
11034;SDS011;5571;48.110;-1.706;2023-09-19T12:05:35;9.85;;;3.15;;
11034;SDS011;5571;48.110;-1.706;2023-09-19T12:08:02;12.95;;;3.58;;
11034;SDS011;5571;48.110;-1.706;2023-09-19T12:10:45;11.32;;;3.55;;
11034;SDS011;5571;48.110;-1.706;2023-09-19T12:13:15;13.55;;;3.70;;
11034;SDS011;5571;48.110;-1.706;2023-09-19T12:15:44;11.00;;;3.75;;
11034;SDS011;5571;48.110;-1.706;2023-09-19T12:18:25;11.13;;;3.42;;
11034;SDS011;5571;48.110;-1.706;2023-09-19T12:20:52;10.00;;;3.63;;
11034;SDS011;5571;48.110;-1.706;2023-09-19T12:23:19;14.23;;;3.50;;
11034;SDS011;5571;48.110;-1.706;2023-09-19T12:25:46;11.02;;;3.22;;
11034;SDS011;5571;48.110;-1.706;2023-09-19T12:28:13;13.95;;;3.65;;
11034;SDS011;5571;48.110;-1.706;2023-09-19T12:30:42;17.90;;;3.85;;
11034;SDS011;5571;48.110;-1.706;2023-09-19T12:33:17;8.68;;;3.10;;
11034;SDS011;5571;48.110;-1.706;2023-09-19T12:35:46;8.95;;;3.40;;
11034;SDS011;5571;48.110;-1.706;2023-09-19T12:38:22;10.00;;;3.22;;
11034;SDS011;5571;48.110;-1.706;2023-09-19T12:40:57;11.25;;;3.20;;
11034;SDS011;5571;48.110;-1.706;2023-09-19T12:43:28;13.40;;;3.33;;
11034;SDS011;5571;48.110;-1.706;2023-09-19T12:45:57;11.48;;;3.60;;
11034;SDS011;5571;48.110;-1.706;2023-09-19T12:48:25;14.68;;;3.45;;
11034;SDS011;5571;48.110;-1.706;2023-09-19T12:51:08;10.88;;;3.28;;
11034;SDS011;5571;48.110;-1.706;2023-09-19T12:53:42;8.88;;;3.70;;
11034;SDS011;5571;48.110;-1.706;2023-09-19T12:56:10;14.52;;;3.35;;
11034;SDS011;5571;48.110;-1.706;2023-09-19T12:58:51;10.75;;;3.45;;
11034;SDS011;5571;48.110;-1.706;2023-09-19T13:01:19;12.10;;;3.83;;
11034;SDS011;5571;48.110;-1.706;2023-09-19T13:03:44;11.98;;;4.00;;
11034;SDS011;5571;48.110;-1.706;2023-09-19T13:06:11;18.88;;;3.67;;
11034;SDS011;5571;48.110;-1.706;2023-09-19T13:08:38;10.48;;;3.80;;
11034;SDS011;5571;48.110;-1.706;2023-09-19T13:13:40;9.27;;;3.50;;
11034;SDS011;5571;48.110;-1.706;2023-09-19T13:16:19;10.52;;;3.58;;
11034;SDS011;5571;48.110;-1.706;2023-09-19T13:18:50;8.73;;;3.38;;
11034;SDS011;5571;48.110;-1.706;2023-09-19T13:21:29;14.63;;;4.50;;
11034;SDS011;5571;48.110;-1.706;2023-09-19T13:24:23;13.25;;;4.15;;
11034;SDS011;5571;48.110;-1.706;2023-09-19T13:26:53;8.82;;;3.60;;
11034;SDS011;5571;48.110;-1.706;2023-09-19T13:29:19;13.07;;;3.83;;
11034;SDS011;5571;48.110;-1.706;2023-09-19T13:31:48;11.23;;;4.05;;
11034;SDS011;5571;48.110;-1.706;2023-09-19T13:34:14;11.05;;;3.65;;
11034;SDS011;5571;48.110;-1.706;2023-09-19T13:36:42;10.38;;;3.42;;
11034;SDS011;5571;48.110;-1.706;2023-09-19T13:39:08;10.57;;;3.90;;
11034;SDS011;5571;48.110;-1.706;2023-09-19T13:41:34;20.83;;;4.03;;
11034;SDS011;5571;48.110;-1.706;2023-09-19T13:44:03;13.35;;;3.75;;
11034;SDS011;5571;48.110;-1.706;2023-09-19T13:46:30;11.98;;;3.72;;
11034;SDS011;5571;48.110;-1.706;2023-09-19T13:48:58;8.75;;;3.38;;
11034;SDS011;5571;48.110;-1.706;2023-09-19T13:51:25;10.52;;;3.60;;
11034;SDS011;5571;48.110;-1.706;2023-09-19T13:53:52;8.25;;;3.55;;
11034;SDS011;5571;48.110;-1.706;2023-09-19T13:56:19;15.50;;;4.20;;
11034;SDS011;5571;48.110;-1.706;2023-09-19T13:58:44;12.55;;;3.80;;
11034;SDS011;5571;48.110;-1.706;2023-09-19T14:01:10;8.82;;;3.35;;
11034;SDS011;5571;48.110;-1.706;2023-09-19T14:03:38;16.33;;;3.88;;
11034;SDS011;5571;48.110;-1.706;2023-09-19T14:06:11;9.32;;;3.88;;
11034;SDS011;5571;48.110;-1.706;2023-09-19T14:08:37;10.88;;;3.90;;
11034;SDS011;5571;48.110;-1.706;2023-09-19T14:11:06;10.48;;;3.67;;
11034;SDS011;5571;48.110;-1.706;2023-09-19T14:13:32;10.88;;;4.07;;
11034;SDS011;5571;48.110;-1.706;2023-09-19T14:16:02;11.25;;;3.78;;
11034;SDS011;5571;48.110;-1.706;2023-09-19T14:18:31;8.25;;;3.60;;
11034;SDS011;5571;48.110;-1.706;2023-09-19T14:20:57;13.93;;;3.60;;
11034;SDS011;5571;48.110;-1.706;2023-09-19T14:23:23;14.65;;;3.95;;
11034;SDS011;5571;48.110;-1.706;2023-09-19T14:25:50;12.90;;;4.00;;
11034;SDS011;5571;48.110;-1.706;2023-09-19T14:28:16;11.25;;;3.63;;
11034;SDS011;5571;48.110;-1.706;2023-09-19T14:30:43;10.20;;;3.55;;
11034;SDS011;5571;48.110;-1.706;2023-09-19T14:33:08;11.23;;;3.72;;
11034;SDS011;5571;48.110;-1.706;2023-09-19T14:35:36;15.52;;;3.67;;
11034;SDS011;5571;48.110;-1.706;2023-09-19T14:38:03;13.02;;;3.97;;
11034;SDS011;5571;48.110;-1.706;2023-09-19T14:40:29;13.88;;;4.20;;
11034;SDS011;5571;48.110;-1.706;2023-09-19T14:42:54;9.95;;;3.67;;
11034;SDS011;5571;48.110;-1.706;2023-09-19T14:45:20;14.52;;;3.92;;
11034;SDS011;5571;48.110;-1.706;2023-09-19T14:47:45;13.82;;;4.32;;
11034;SDS011;5571;48.110;-1.706;2023-09-19T14:50:12;15.70;;;4.30;;
11034;SDS011;5571;48.110;-1.706;2023-09-19T14:52:38;12.20;;;3.95;;
11034;SDS011;5571;48.110;-1.706;2023-09-19T14:55:05;11.30;;;3.83;;
11034;SDS011;5571;48.110;-1.706;2023-09-19T14:57:31;11.15;;;4.13;;
11034;SDS011;5571;48.110;-1.706;2023-09-19T14:59:58;11.27;;;4.28;;
11034;SDS011;5571;48.110;-1.706;2023-09-19T15:02:23;10.52;;;3.92;;
11034;SDS011;5571;48.110;-1.706;2023-09-19T15:04:51;13.32;;;4.35;;
11034;SDS011;5571;48.110;-1.706;2023-09-19T15:07:17;15.07;;;4.43;;
11034;SDS011;5571;48.110;-1.706;2023-09-19T15:09:43;13.68;;;4.53;;
11034;SDS011;5571;48.110;-1.706;2023-09-19T15:12:09;12.80;;;4.35;;
11034;SDS011;5571;48.110;-1.706;2023-09-19T15:14:39;12.02;;;4.00;;
11034;SDS011;5571;48.110;-1.706;2023-09-19T15:17:06;12.40;;;3.97;;
11034;SDS011;5571;48.110;-1.706;2023-09-19T15:19:32;14.35;;;4.03;;
11034;SDS011;5571;48.110;-1.706;2023-09-19T15:21:58;10.43;;;4.30;;
11034;SDS011;5571;48.110;-1.706;2023-09-19T15:24:24;13.60;;;4.30;;
11034;SDS011;5571;48.110;-1.706;2023-09-19T15:26:51;14.05;;;4.53;;
11034;SDS011;5571;48.110;-1.706;2023-09-19T15:29:17;12.57;;;4.22;;
11034;SDS011;5571;48.110;-1.706;2023-09-19T15:31:43;14.50;;;4.43;;
11034;SDS011;5571;48.110;-1.706;2023-09-19T15:34:08;12.77;;;5.03;;
11034;SDS011;5571;48.110;-1.706;2023-09-19T15:36:34;12.10;;;4.32;;